sensor_id;sensor_type;location;lat;lon;timestamp;temperature;humidity
66213;SHT31;53015;50.046;8.238;2023-08-21T00:01:59;22.91;86.65
66213;SHT31;53015;50.046;8.238;2023-08-21T00:04:26;22.89;86.81
66213;SHT31;53015;50.046;8.238;2023-08-21T00:06:51;22.78;86.57
66213;SHT31;53015;50.046;8.238;2023-08-21T00:09:17;22.75;86.74
66213;SHT31;53015;50.046;8.238;2023-08-21T00:11:42;22.72;87.19
66213;SHT31;53015;50.046;8.238;2023-08-21T00:14:08;22.76;87.13
66213;SHT31;53015;50.046;8.238;2023-08-21T00:16:33;22.73;87.17
66213;SHT31;53015;50.046;8.238;2023-08-21T00:18:59;22.84;86.94
66213;SHT31;53015;50.046;8.238;2023-08-21T00:21:26;22.86;87.02
66213;SHT31;53015;50.046;8.238;2023-08-21T00:23:52;22.89;87.03
66213;SHT31;53015;50.046;8.238;2023-08-21T00:26:17;22.85;87.01
66213;SHT31;53015;50.046;8.238;2023-08-21T00:28:43;22.86;87.08
66213;SHT31;53015;50.046;8.238;2023-08-21T00:31:08;22.82;87.22
66213;SHT31;53015;50.046;8.238;2023-08-21T00:33:34;22.79;87.51
66213;SHT31;53015;50.046;8.238;2023-08-21T00:35:59;22.66;87.87
66213;SHT31;53015;50.046;8.238;2023-08-21T00:38:26;22.57;88.43
66213;SHT31;53015;50.046;8.238;2023-08-21T00:40:52;22.57;88.54
66213;SHT31;53015;50.046;8.238;2023-08-21T00:43:17;22.48;88.42
66213;SHT31;53015;50.046;8.238;2023-08-21T00:45:44;22.45;88.90
66213;SHT31;53015;50.046;8.238;2023-08-21T00:48:11;22.55;88.56
66213;SHT31;53015;50.046;8.238;2023-08-21T00:50:37;22.49;88.51
66213;SHT31;53015;50.046;8.238;2023-08-21T00:53:03;22.47;88.63
66213;SHT31;53015;50.046;8.238;2023-08-21T00:55:31;22.44;89.03
66213;SHT31;53015;50.046;8.238;2023-08-21T00:57:57;22.51;88.63
66213;SHT31;53015;50.046;8.238;2023-08-21T01:00:24;22.47;88.88
66213;SHT31;53015;50.046;8.238;2023-08-21T01:02:50;22.40;88.90
66213;SHT31;53015;50.046;8.238;2023-08-21T01:05:18;22.45;88.66
66213;SHT31;53015;50.046;8.238;2023-08-21T01:07:49;22.47;88.42
66213;SHT31;53015;50.046;8.238;2023-08-21T01:10:20;22.38;88.64
66213;SHT31;53015;50.046;8.238;2023-08-21T01:12:54;22.29;88.67
66213;SHT31;53015;50.046;8.238;2023-08-21T01:15:22;22.10;89.11
66213;SHT31;53015;50.046;8.238;2023-08-21T01:17:49;22.00;89.68
66213;SHT31;53015;50.046;8.238;2023-08-21T01:20:15;22.07;89.55
66213;SHT31;53015;50.046;8.238;2023-08-21T01:22:41;22.04;89.81
66213;SHT31;53015;50.046;8.238;2023-08-21T01:25:09;21.97;89.86
66213;SHT31;53015;50.046;8.238;2023-08-21T01:27:35;21.94;89.79
66213;SHT31;53015;50.046;8.238;2023-08-21T01:30:01;22.09;89.43
66213;SHT31;53015;50.046;8.238;2023-08-21T01:32:37;22.18;89.00
66213;SHT31;53015;50.046;8.238;2023-08-21T01:35:07;22.24;89.20
66213;SHT31;53015;50.046;8.238;2023-08-21T01:37:35;22.13;89.24
66213;SHT31;53015;50.046;8.238;2023-08-21T01:40:01;22.04;89.62
66213;SHT31;53015;50.046;8.238;2023-08-21T01:42:28;21.89;90.09
66213;SHT31;53015;50.046;8.238;2023-08-21T01:44:54;21.88;90.40
66213;SHT31;53015;50.046;8.238;2023-08-21T01:47:19;21.89;90.31
66213;SHT31;53015;50.046;8.238;2023-08-21T01:49:45;21.99;90.06
66213;SHT31;53015;50.046;8.238;2023-08-21T01:52:11;21.99;89.94
66213;SHT31;53015;50.046;8.238;2023-08-21T01:54:36;22.10;89.68
66213;SHT31;53015;50.046;8.238;2023-08-21T01:57:02;22.11;89.28
66213;SHT31;53015;50.046;8.238;2023-08-21T01:59:29;22.03;89.45
66213;SHT31;53015;50.046;8.238;2023-08-21T02:01:54;21.97;89.52
66213;SHT31;53015;50.046;8.238;2023-08-21T02:04:20;21.94;89.16
66213;SHT31;53015;50.046;8.238;2023-08-21T02:06:45;21.94;89.92
66213;SHT31;53015;50.046;8.238;2023-08-21T02:09:10;22.10;89.68
66213;SHT31;53015;50.046;8.238;2023-08-21T02:11:36;22.20;89.46
66213;SHT31;53015;50.046;8.238;2023-08-21T02:14:02;22.25;89.38
66213;SHT31;53015;50.046;8.238;2023-08-21T02:16:28;22.27;89.29
66213;SHT31;53015;50.046;8.238;2023-08-21T02:18:54;22.25;89.29
66213;SHT31;53015;50.046;8.238;2023-08-21T02:21:20;22.21;89.16
66213;SHT31;53015;50.046;8.238;2023-08-21T02:23:45;22.18;89.29
66213;SHT31;53015;50.046;8.238;2023-08-21T02:26:11;22.20;89.29
66213;SHT31;53015;50.046;8.238;2023-08-21T02:28:36;22.18;89.50
66213;SHT31;53015;50.046;8.238;2023-08-21T02:31:02;22.17;89.51
66213;SHT31;53015;50.046;8.238;2023-08-21T02:33:30;22.17;90.03
66213;SHT31;53015;50.046;8.238;2023-08-21T02:35:56;22.17;90.15
66213;SHT31;53015;50.046;8.238;2023-08-21T02:38:21;22.07;90.42
66213;SHT31;53015;50.046;8.238;2023-08-21T02:40:47;22.07;90.60
66213;SHT31;53015;50.046;8.238;2023-08-21T02:43:12;21.90;90.48
66213;SHT31;53015;50.046;8.238;2023-08-21T02:45:38;21.86;90.75
66213;SHT31;53015;50.046;8.238;2023-08-21T02:48:04;21.86;90.51
66213;SHT31;53015;50.046;8.238;2023-08-21T02:50:31;21.90;90.61
66213;SHT31;53015;50.046;8.238;2023-08-21T02:52:56;21.89;90.59
66213;SHT31;53015;50.046;8.238;2023-08-21T02:55:22;21.82;90.85
66213;SHT31;53015;50.046;8.238;2023-08-21T02:57:47;21.83;90.76
66213;SHT31;53015;50.046;8.238;2023-08-21T03:00:13;21.86;90.64
66213;SHT31;53015;50.046;8.238;2023-08-21T03:02:39;21.78;90.85
66213;SHT31;53015;50.046;8.238;2023-08-21T03:05:05;21.73;90.91
66213;SHT31;53015;50.046;8.238;2023-08-21T03:07:31;21.71;90.93
66213;SHT31;53015;50.046;8.238;2023-08-21T03:09:57;21.71;90.90
66213;SHT31;53015;50.046;8.238;2023-08-21T03:12:22;21.69;91.03
66213;SHT31;53015;50.046;8.238;2023-08-21T03:14:48;21.66;91.02
66213;SHT31;53015;50.046;8.238;2023-08-21T03:17:13;21.62;91.05
66213;SHT31;53015;50.046;8.238;2023-08-21T03:19:39;21.59;91.29
66213;SHT31;53015;50.046;8.238;2023-08-21T03:22:04;21.54;91.45
66213;SHT31;53015;50.046;8.238;2023-08-21T03:24:31;21.51;91.59
66213;SHT31;53015;50.046;8.238;2023-08-21T03:26:57;21.56;91.39
66213;SHT31;53015;50.046;8.238;2023-08-21T03:29:22;21.52;91.46
66213;SHT31;53015;50.046;8.238;2023-08-21T03:31:49;21.49;91.54
66213;SHT31;53015;50.046;8.238;2023-08-21T03:34:14;21.49;91.59
66213;SHT31;53015;50.046;8.238;2023-08-21T03:36:40;21.38;91.79
66213;SHT31;53015;50.046;8.238;2023-08-21T03:39:05;21.39;91.79
66213;SHT31;53015;50.046;8.238;2023-08-21T03:41:32;21.38;91.85
66213;SHT31;53015;50.046;8.238;2023-08-21T03:43:58;21.34;92.12
66213;SHT31;53015;50.046;8.238;2023-08-21T03:46:23;21.34;92.29
66213;SHT31;53015;50.046;8.238;2023-08-21T03:48:49;21.28;92.27
66213;SHT31;53015;50.046;8.238;2023-08-21T03:51:15;21.30;92.29
66213;SHT31;53015;50.046;8.238;2023-08-21T03:53:40;21.27;92.30
66213;SHT31;53015;50.046;8.238;2023-08-21T03:56:06;21.21;92.50
66213;SHT31;53015;50.046;8.238;2023-08-21T03:58:33;21.24;92.37
66213;SHT31;53015;50.046;8.238;2023-08-21T04:00:58;21.21;92.18
66213;SHT31;53015;50.046;8.238;2023-08-21T04:03:24;21.17;92.48
66213;SHT31;53015;50.046;8.238;2023-08-21T04:05:49;21.10;92.79
66213;SHT31;53015;50.046;8.238;2023-08-21T04:08:15;21.08;92.75
66213;SHT31;53015;50.046;8.238;2023-08-21T04:10:40;21.06;92.69
66213;SHT31;53015;50.046;8.238;2023-08-21T04:13:06;21.07;92.64
66213;SHT31;53015;50.046;8.238;2023-08-21T04:15:33;21.03;92.74
66213;SHT31;53015;50.046;8.238;2023-08-21T04:17:59;21.04;92.67
66213;SHT31;53015;50.046;8.238;2023-08-21T04:20:24;20.97;92.79
66213;SHT31;53015;50.046;8.238;2023-08-21T04:22:50;20.94;92.55
66213;SHT31;53015;50.046;8.238;2023-08-21T04:25:15;20.97;92.67
66213;SHT31;53015;50.046;8.238;2023-08-21T04:27:41;21.00;92.61
66213;SHT31;53015;50.046;8.238;2023-08-21T04:30:08;21.00;92.55
66213;SHT31;53015;50.046;8.238;2023-08-21T04:32:35;21.00;92.67
66213;SHT31;53015;50.046;8.238;2023-08-21T04:35:00;21.04;92.51
66213;SHT31;53015;50.046;8.238;2023-08-21T04:37:26;21.04;92.54
66213;SHT31;53015;50.046;8.238;2023-08-21T04:39:51;21.01;92.67
66213;SHT31;53015;50.046;8.238;2023-08-21T04:42:17;21.07;92.44
66213;SHT31;53015;50.046;8.238;2023-08-21T04:44:43;21.03;92.71
66213;SHT31;53015;50.046;8.238;2023-08-21T04:47:22;21.06;92.59
66213;SHT31;53015;50.046;8.238;2023-08-21T04:49:49;21.07;92.61
66213;SHT31;53015;50.046;8.238;2023-08-21T04:52:15;21.06;92.62
66213;SHT31;53015;50.046;8.238;2023-08-21T04:54:40;21.07;92.77
66213;SHT31;53015;50.046;8.238;2023-08-21T04:57:06;21.08;92.73
66213;SHT31;53015;50.046;8.238;2023-08-21T04:59:31;21.06;92.80
66213;SHT31;53015;50.046;8.238;2023-08-21T05:01:57;21.14;92.75
66213;SHT31;53015;50.046;8.238;2023-08-21T05:04:22;21.14;92.66
66213;SHT31;53015;50.046;8.238;2023-08-21T05:06:49;21.20;92.73
66213;SHT31;53015;50.046;8.238;2023-08-21T05:09:15;21.28;92.55
66213;SHT31;53015;50.046;8.238;2023-08-21T05:11:40;21.28;92.33
66213;SHT31;53015;50.046;8.238;2023-08-21T05:14:06;21.35;92.21
66213;SHT31;53015;50.046;8.238;2023-08-21T05:16:32;21.38;92.26
66213;SHT31;53015;50.046;8.238;2023-08-21T05:18:57;21.34;92.13
66213;SHT31;53015;50.046;8.238;2023-08-21T05:21:23;21.31;92.83
66213;SHT31;53015;50.046;8.238;2023-08-21T05:23:50;21.31;92.66
66213;SHT31;53015;50.046;8.238;2023-08-21T05:26:15;21.44;92.71
66213;SHT31;53015;50.046;8.238;2023-08-21T05:28:41;21.49;92.17
66213;SHT31;53015;50.046;8.238;2023-08-21T05:31:06;21.37;92.59
66213;SHT31;53015;50.046;8.238;2023-08-21T05:33:32;21.44;92.85
66213;SHT31;53015;50.046;8.238;2023-08-21T05:35:57;21.48;92.54
66213;SHT31;53015;50.046;8.238;2023-08-21T05:38:23;21.54;92.38
66213;SHT31;53015;50.046;8.238;2023-08-21T05:40:50;21.61;92.17
66213;SHT31;53015;50.046;8.238;2023-08-21T05:43:16;21.62;92.03
66213;SHT31;53015;50.046;8.238;2023-08-21T05:45:42;21.73;92.10
66213;SHT31;53015;50.046;8.238;2023-08-21T05:48:07;21.72;92.01
66213;SHT31;53015;50.046;8.238;2023-08-21T05:50:33;21.72;91.77
66213;SHT31;53015;50.046;8.238;2023-08-21T05:52:58;21.81;91.79
66213;SHT31;53015;50.046;8.238;2023-08-21T05:55:24;21.86;91.07
66213;SHT31;53015;50.046;8.238;2023-08-21T05:57:51;21.82;91.42
66213;SHT31;53015;50.046;8.238;2023-08-21T06:00:17;21.86;90.94
66213;SHT31;53015;50.046;8.238;2023-08-21T06:02:42;22.06;89.71
66213;SHT31;53015;50.046;8.238;2023-08-21T06:05:08;22.10;88.91
66213;SHT31;53015;50.046;8.238;2023-08-21T06:07:34;22.21;89.59
66213;SHT31;53015;50.046;8.238;2023-08-21T06:09:59;22.13;88.86
66213;SHT31;53015;50.046;8.238;2023-08-21T06:12:25;22.10;89.39
66213;SHT31;53015;50.046;8.238;2023-08-21T06:14:52;22.10;89.54
66213;SHT31;53015;50.046;8.238;2023-08-21T06:17:17;22.14;89.94
66213;SHT31;53015;50.046;8.238;2023-08-21T06:19:43;22.14;89.49
66213;SHT31;53015;50.046;8.238;2023-08-21T06:22:08;22.22;89.39
66213;SHT31;53015;50.046;8.238;2023-08-21T06:24:34;22.24;89.38
66213;SHT31;53015;50.046;8.238;2023-08-21T06:26:59;22.38;88.98
66213;SHT31;53015;50.046;8.238;2023-08-21T06:29:25;22.58;87.92
66213;SHT31;53015;50.046;8.238;2023-08-21T06:31:52;22.71;87.21
66213;SHT31;53015;50.046;8.238;2023-08-21T06:34:18;22.85;86.91
66213;SHT31;53015;50.046;8.238;2023-08-21T06:36:43;22.99;86.59
66213;SHT31;53015;50.046;8.238;2023-08-21T06:39:09;22.96;86.76
66213;SHT31;53015;50.046;8.238;2023-08-21T06:41:34;23.07;86.28
66213;SHT31;53015;50.046;8.238;2023-08-21T06:44:00;23.07;86.21
66213;SHT31;53015;50.046;8.238;2023-08-21T06:46:26;23.19;86.33
66213;SHT31;53015;50.046;8.238;2023-08-21T06:48:52;23.39;85.17
66213;SHT31;53015;50.046;8.238;2023-08-21T06:51:18;23.43;85.59
66213;SHT31;53015;50.046;8.238;2023-08-21T06:53:44;23.46;85.42
66213;SHT31;53015;50.046;8.238;2023-08-21T06:56:09;23.64;85.10
66213;SHT31;53015;50.046;8.238;2023-08-21T06:58:35;23.67;84.66
66213;SHT31;53015;50.046;8.238;2023-08-21T07:01:00;23.72;84.06
66213;SHT31;53015;50.046;8.238;2023-08-21T07:03:26;23.74;84.15
66213;SHT31;53015;50.046;8.238;2023-08-21T07:05:57;23.81;84.61
66213;SHT31;53015;50.046;8.238;2023-08-21T07:08:22;23.95;84.22
66213;SHT31;53015;50.046;8.238;2023-08-21T07:10:48;23.98;83.81
66213;SHT31;53015;50.046;8.238;2023-08-21T07:13:14;23.96;83.39
66213;SHT31;53015;50.046;8.238;2023-08-21T07:15:39;24.08;83.11
66213;SHT31;53015;50.046;8.238;2023-08-21T07:18:05;24.20;82.62
66213;SHT31;53015;50.046;8.238;2023-08-21T07:20:41;24.30;82.52
66213;SHT31;53015;50.046;8.238;2023-08-21T07:23:08;24.50;82.42
66213;SHT31;53015;50.046;8.238;2023-08-21T07:25:34;24.67;82.68
66213;SHT31;53015;50.046;8.238;2023-08-21T07:28:00;24.70;82.88
66213;SHT31;53015;50.046;8.238;2023-08-21T07:30:25;24.82;81.97
66213;SHT31;53015;50.046;8.238;2023-08-21T07:32:52;24.65;82.35
66213;SHT31;53015;50.046;8.238;2023-08-21T07:35:18;24.82;81.96
66213;SHT31;53015;50.046;8.238;2023-08-21T07:37:44;25.01;82.82
66213;SHT31;53015;50.046;8.238;2023-08-21T07:40:11;25.06;81.64
66213;SHT31;53015;50.046;8.238;2023-08-21T07:42:37;25.04;81.91
66213;SHT31;53015;50.046;8.238;2023-08-21T07:45:03;25.19;81.79
66213;SHT31;53015;50.046;8.238;2023-08-21T07:47:28;25.30;81.78
66213;SHT31;53015;50.046;8.238;2023-08-21T07:49:54;25.49;81.18
66213;SHT31;53015;50.046;8.238;2023-08-21T07:52:19;25.63;81.42
66213;SHT31;53015;50.046;8.238;2023-08-21T07:54:45;25.70;80.29
66213;SHT31;53015;50.046;8.238;2023-08-21T07:57:12;25.71;79.48
66213;SHT31;53015;50.046;8.238;2023-08-21T07:59:37;25.75;79.46
66213;SHT31;53015;50.046;8.238;2023-08-21T08:02:03;25.57;79.38
66213;SHT31;53015;50.046;8.238;2023-08-21T08:04:28;25.67;79.06
66213;SHT31;53015;50.046;8.238;2023-08-21T08:06:54;25.85;79.47
66213;SHT31;53015;50.046;8.238;2023-08-21T08:09:19;25.90;79.22
66213;SHT31;53015;50.046;8.238;2023-08-21T08:11:45;26.01;79.06
66213;SHT31;53015;50.046;8.238;2023-08-21T08:14:12;26.05;78.53
66213;SHT31;53015;50.046;8.238;2023-08-21T08:16:37;26.09;78.85
66213;SHT31;53015;50.046;8.238;2023-08-21T08:19:03;26.17;78.38
66213;SHT31;53015;50.046;8.238;2023-08-21T08:21:28;26.29;78.30
66213;SHT31;53015;50.046;8.238;2023-08-21T08:23:53;26.36;77.56
66213;SHT31;53015;50.046;8.238;2023-08-21T08:26:19;26.39;75.95
66213;SHT31;53015;50.046;8.238;2023-08-21T08:28:44;26.37;76.42
66213;SHT31;53015;50.046;8.238;2023-08-21T08:31:15;26.35;76.64
66213;SHT31;53015;50.046;8.238;2023-08-21T08:33:41;26.42;75.72
66213;SHT31;53015;50.046;8.238;2023-08-21T08:36:06;26.40;74.40
66213;SHT31;53015;50.046;8.238;2023-08-21T08:38:32;26.52;73.20
66213;SHT31;53015;50.046;8.238;2023-08-21T08:40:58;26.54;72.38
66213;SHT31;53015;50.046;8.238;2023-08-21T08:43:25;26.64;73.60
66213;SHT31;53015;50.046;8.238;2023-08-21T08:45:51;26.72;73.46
66213;SHT31;53015;50.046;8.238;2023-08-21T08:48:20;26.80;73.77
66213;SHT31;53015;50.046;8.238;2023-08-21T08:50:45;26.91;74.21
66213;SHT31;53015;50.046;8.238;2023-08-21T08:53:12;27.02;73.48
66213;SHT31;53015;50.046;8.238;2023-08-21T08:55:39;27.04;73.37
66213;SHT31;53015;50.046;8.238;2023-08-21T08:58:04;27.12;72.56
66213;SHT31;53015;50.046;8.238;2023-08-21T09:00:29;27.02;72.71
66213;SHT31;53015;50.046;8.238;2023-08-21T09:02:56;27.14;73.37
66213;SHT31;53015;50.046;8.238;2023-08-21T09:05:23;27.21;73.21
66213;SHT31;53015;50.046;8.238;2023-08-21T09:08:02;27.35;73.96
66213;SHT31;53015;50.046;8.238;2023-08-21T09:10:27;27.36;71.58
66213;SHT31;53015;50.046;8.238;2023-08-21T09:12:53;27.41;72.42
66213;SHT31;53015;50.046;8.238;2023-08-21T09:15:19;27.34;71.98
66213;SHT31;53015;50.046;8.238;2023-08-21T09:17:53;27.45;72.13
66213;SHT31;53015;50.046;8.238;2023-08-21T09:20:18;27.65;71.67
66213;SHT31;53015;50.046;8.238;2023-08-21T09:22:53;27.73;70.32
66213;SHT31;53015;50.046;8.238;2023-08-21T09:25:18;27.76;71.23
66213;SHT31;53015;50.046;8.238;2023-08-21T09:27:44;27.79;70.42
66213;SHT31;53015;50.046;8.238;2023-08-21T09:30:10;27.74;71.20
66213;SHT31;53015;50.046;8.238;2023-08-21T09:32:52;27.93;70.89
66213;SHT31;53015;50.046;8.238;2023-08-21T09:35:18;28.00;70.80
66213;SHT31;53015;50.046;8.238;2023-08-21T09:37:46;27.97;70.19
66213;SHT31;53015;50.046;8.238;2023-08-21T09:40:12;28.07;69.52
66213;SHT31;53015;50.046;8.238;2023-08-21T09:42:39;28.12;69.08
66213;SHT31;53015;50.046;8.238;2023-08-21T09:45:05;28.24;69.45
66213;SHT31;53015;50.046;8.238;2023-08-21T09:47:31;28.25;68.00
66213;SHT31;53015;50.046;8.238;2023-08-21T09:49:57;28.27;67.45
66213;SHT31;53015;50.046;8.238;2023-08-21T09:52:24;28.29;68.40
66213;SHT31;53015;50.046;8.238;2023-08-21T09:54:53;28.41;68.87
66213;SHT31;53015;50.046;8.238;2023-08-21T09:57:21;28.56;71.60
66213;SHT31;53015;50.046;8.238;2023-08-21T09:59:47;28.53;68.82
66213;SHT31;53015;50.046;8.238;2023-08-21T10:02:14;28.65;68.38
66213;SHT31;53015;50.046;8.238;2023-08-21T10:04:40;28.70;69.64
66213;SHT31;53015;50.046;8.238;2023-08-21T10:07:07;28.80;70.18
66213;SHT31;53015;50.046;8.238;2023-08-21T10:09:33;28.84;69.09
66213;SHT31;53015;50.046;8.238;2023-08-21T10:12:02;28.94;69.80
66213;SHT31;53015;50.046;8.238;2023-08-21T10:14:28;28.94;68.69
66213;SHT31;53015;50.046;8.238;2023-08-21T10:16:54;29.02;67.17
66213;SHT31;53015;50.046;8.238;2023-08-21T10:19:20;29.03;66.94
66213;SHT31;53015;50.046;8.238;2023-08-21T10:21:47;29.07;67.77
66213;SHT31;53015;50.046;8.238;2023-08-21T10:24:12;29.13;67.78
66213;SHT31;53015;50.046;8.238;2023-08-21T10:26:50;29.37;67.41
66213;SHT31;53015;50.046;8.238;2023-08-21T10:29:17;29.54;67.89
66213;SHT31;53015;50.046;8.238;2023-08-21T10:31:43;29.49;66.54
66213;SHT31;53015;50.046;8.238;2023-08-21T10:34:09;29.59;67.97
66213;SHT31;53015;50.046;8.238;2023-08-21T10:39:33;29.62;65.94
66213;SHT31;53015;50.046;8.238;2023-08-21T10:42:01;29.72;65.82
66213;SHT31;53015;50.046;8.238;2023-08-21T10:44:36;29.76;66.13
66213;SHT31;53015;50.046;8.238;2023-08-21T10:47:15;29.72;66.13
66213;SHT31;53015;50.046;8.238;2023-08-21T10:49:41;29.85;65.40
66213;SHT31;53015;50.046;8.238;2023-08-21T10:52:08;29.92;67.38
66213;SHT31;53015;50.046;8.238;2023-08-21T10:54:43;29.99;67.61
66213;SHT31;53015;50.046;8.238;2023-08-21T10:57:08;30.04;65.59
66213;SHT31;53015;50.046;8.238;2023-08-21T10:59:35;30.07;63.80
66213;SHT31;53015;50.046;8.238;2023-08-21T11:02:01;30.17;63.95
66213;SHT31;53015;50.046;8.238;2023-08-21T11:04:26;30.17;64.88
66213;SHT31;53015;50.046;8.238;2023-08-21T11:06:52;30.33;64.59
66213;SHT31;53015;50.046;8.238;2023-08-21T11:09:18;30.40;65.21
66213;SHT31;53015;50.046;8.238;2023-08-21T11:11:44;30.45;64.91
66213;SHT31;53015;50.046;8.238;2023-08-21T11:14:10;30.38;64.55
66213;SHT31;53015;50.046;8.238;2023-08-21T11:16:38;30.48;65.89
66213;SHT31;53015;50.046;8.238;2023-08-21T11:19:04;30.57;65.23
66213;SHT31;53015;50.046;8.238;2023-08-21T11:21:29;30.20;61.98
66213;SHT31;53015;50.046;8.238;2023-08-21T11:23:55;30.30;62.18
66213;SHT31;53015;50.046;8.238;2023-08-21T11:26:21;30.38;63.34
66213;SHT31;53015;50.046;8.238;2023-08-21T11:28:47;30.62;63.36
66213;SHT31;53015;50.046;8.238;2023-08-21T11:31:13;30.78;63.31
66213;SHT31;53015;50.046;8.238;2023-08-21T11:33:40;30.80;62.43
66213;SHT31;53015;50.046;8.238;2023-08-21T11:36:05;30.85;61.97
66213;SHT31;53015;50.046;8.238;2023-08-21T11:38:31;30.92;62.92
66213;SHT31;53015;50.046;8.238;2023-08-21T11:40:58;30.93;60.66
66213;SHT31;53015;50.046;8.238;2023-08-21T11:43:34;31.00;62.04
66213;SHT31;53015;50.046;8.238;2023-08-21T11:46:01;31.09;61.42
66213;SHT31;53015;50.046;8.238;2023-08-21T11:48:26;31.09;58.59
66213;SHT31;53015;50.046;8.238;2023-08-21T11:50:54;31.23;57.61
66213;SHT31;53015;50.046;8.238;2023-08-21T11:53:31;31.29;58.55
66213;SHT31;53015;50.046;8.238;2023-08-21T11:55:56;31.15;59.57
66213;SHT31;53015;50.046;8.238;2023-08-21T11:58:22;31.17;60.28
66213;SHT31;53015;50.046;8.238;2023-08-21T12:00:47;31.19;60.95
66213;SHT31;53015;50.046;8.238;2023-08-21T12:03:18;31.26;59.60
66213;SHT31;53015;50.046;8.238;2023-08-21T12:05:43;31.36;61.41
66213;SHT31;53015;50.046;8.238;2023-08-21T12:08:10;31.55;60.72
66213;SHT31;53015;50.046;8.238;2023-08-21T12:10:36;31.61;60.92
66213;SHT31;53015;50.046;8.238;2023-08-21T12:13:01;31.71;60.49
66213;SHT31;53015;50.046;8.238;2023-08-21T12:15:27;31.82;61.33
66213;SHT31;53015;50.046;8.238;2023-08-21T12:17:52;31.95;60.28
66213;SHT31;53015;50.046;8.238;2023-08-21T12:20:18;31.92;60.24
66213;SHT31;53015;50.046;8.238;2023-08-21T12:22:43;31.91;60.16
66213;SHT31;53015;50.046;8.238;2023-08-21T12:25:10;31.72;61.15
66213;SHT31;53015;50.046;8.238;2023-08-21T12:27:36;31.75;60.53
66213;SHT31;53015;50.046;8.238;2023-08-21T12:30:02;31.55;58.48
66213;SHT31;53015;50.046;8.238;2023-08-21T12:32:27;31.44;59.26
66213;SHT31;53015;50.046;8.238;2023-08-21T12:34:53;31.50;58.85
66213;SHT31;53015;50.046;8.238;2023-08-21T12:37:18;31.61;59.19
66213;SHT31;53015;50.046;8.238;2023-08-21T12:39:44;31.84;57.85
66213;SHT31;53015;50.046;8.238;2023-08-21T12:42:10;32.01;58.10
66213;SHT31;53015;50.046;8.238;2023-08-21T12:44:36;32.13;54.82
66213;SHT31;53015;50.046;8.238;2023-08-21T12:47:01;32.16;56.38
66213;SHT31;53015;50.046;8.238;2023-08-21T12:49:27;32.13;57.68
66213;SHT31;53015;50.046;8.238;2023-08-21T12:51:52;32.29;57.45
66213;SHT31;53015;50.046;8.238;2023-08-21T12:54:18;32.36;53.83
66213;SHT31;53015;50.046;8.238;2023-08-21T12:56:43;32.50;52.79
66213;SHT31;53015;50.046;8.238;2023-08-21T12:59:10;32.65;51.69
66213;SHT31;53015;50.046;8.238;2023-08-21T13:01:36;32.75;53.51
66213;SHT31;53015;50.046;8.238;2023-08-21T13:04:01;32.97;53.20
66213;SHT31;53015;50.046;8.238;2023-08-21T13:06:27;33.19;55.70
66213;SHT31;53015;50.046;8.238;2023-08-21T13:08:53;33.35;54.30
66213;SHT31;53015;50.046;8.238;2023-08-21T13:11:18;33.42;53.21
66213;SHT31;53015;50.046;8.238;2023-08-21T13:13:44;33.32;53.51
66213;SHT31;53015;50.046;8.238;2023-08-21T13:16:11;33.05;52.72
66213;SHT31;53015;50.046;8.238;2023-08-21T13:18:36;32.91;52.26
66213;SHT31;53015;50.046;8.238;2023-08-21T13:21:02;32.60;53.56
66213;SHT31;53015;50.046;8.238;2023-08-21T13:23:28;32.75;54.38
66213;SHT31;53015;50.046;8.238;2023-08-21T13:25:54;32.74;55.14
66213;SHT31;53015;50.046;8.238;2023-08-21T13:28:20;32.77;56.12
66213;SHT31;53015;50.046;8.238;2023-08-21T13:30:45;32.87;52.62
66213;SHT31;53015;50.046;8.238;2023-08-21T13:33:14;32.82;52.26
66213;SHT31;53015;50.046;8.238;2023-08-21T13:35:40;32.92;53.62
66213;SHT31;53015;50.046;8.238;2023-08-21T13:38:05;32.92;53.47
66213;SHT31;53015;50.046;8.238;2023-08-21T13:40:31;32.94;52.72
66213;SHT31;53015;50.046;8.238;2023-08-21T13:42:56;32.88;53.45
66213;SHT31;53015;50.046;8.238;2023-08-21T13:45:23;32.84;53.74
66213;SHT31;53015;50.046;8.238;2023-08-21T13:47:48;32.99;54.27
66213;SHT31;53015;50.046;8.238;2023-08-21T13:50:17;32.70;51.68
66213;SHT31;53015;50.046;8.238;2023-08-21T13:52:43;32.56;53.30
66213;SHT31;53015;50.046;8.238;2023-08-21T13:55:10;32.18;55.68
66213;SHT31;53015;50.046;8.238;2023-08-21T13:57:36;32.41;55.50
66213;SHT31;53015;50.046;8.238;2023-08-21T14:00:03;32.56;52.96
66213;SHT31;53015;50.046;8.238;2023-08-21T14:02:29;32.47;53.93
66213;SHT31;53015;50.046;8.238;2023-08-21T14:04:54;32.75;52.84
66213;SHT31;53015;50.046;8.238;2023-08-21T14:07:21;32.90;52.30
66213;SHT31;53015;50.046;8.238;2023-08-21T14:09:47;32.94;53.73
66213;SHT31;53015;50.046;8.238;2023-08-21T14:12:12;32.98;53.56
66213;SHT31;53015;50.046;8.238;2023-08-21T14:14:38;32.95;52.39
66213;SHT31;53015;50.046;8.238;2023-08-21T14:17:03;33.07;53.74
66213;SHT31;53015;50.046;8.238;2023-08-21T14:19:29;33.08;53.50
66213;SHT31;53015;50.046;8.238;2023-08-21T14:21:55;33.14;51.63
66213;SHT31;53015;50.046;8.238;2023-08-21T14:24:22;33.14;51.38
66213;SHT31;53015;50.046;8.238;2023-08-21T14:26:47;33.19;52.43
66213;SHT31;53015;50.046;8.238;2023-08-21T14:29:13;33.32;53.94
66213;SHT31;53015;50.046;8.238;2023-08-21T14:31:38;33.21;53.69
66213;SHT31;53015;50.046;8.238;2023-08-21T14:34:04;33.32;52.27
66213;SHT31;53015;50.046;8.238;2023-08-21T14:36:29;33.36;52.51
66213;SHT31;53015;50.046;8.238;2023-08-21T14:38:55;33.64;52.59
66213;SHT31;53015;50.046;8.238;2023-08-21T14:41:21;33.70;55.00
66213;SHT31;53015;50.046;8.238;2023-08-21T14:43:47;33.86;52.67
66213;SHT31;53015;50.046;8.238;2023-08-21T14:46:12;33.97;52.74
66213;SHT31;53015;50.046;8.238;2023-08-21T14:48:38;34.07;52.70
66213;SHT31;53015;50.046;8.238;2023-08-21T14:51:03;34.00;51.55
66213;SHT31;53015;50.046;8.238;2023-08-21T14:53:29;33.70;52.64
66213;SHT31;53015;50.046;8.238;2023-08-21T14:55:54;33.56;51.75
66213;SHT31;53015;50.046;8.238;2023-08-21T14:58:22;33.39;53.63
66213;SHT31;53015;50.046;8.238;2023-08-21T15:00:47;33.37;51.46
66213;SHT31;53015;50.046;8.238;2023-08-21T15:03:13;33.26;52.41
66213;SHT31;53015;50.046;8.238;2023-08-21T15:05:38;33.05;53.30
66213;SHT31;53015;50.046;8.238;2023-08-21T15:08:04;32.95;53.03
66213;SHT31;53015;50.046;8.238;2023-08-21T15:10:29;33.04;51.42
66213;SHT31;53015;50.046;8.238;2023-08-21T15:12:55;33.17;51.65
66213;SHT31;53015;50.046;8.238;2023-08-21T15:15:22;33.08;53.16
66213;SHT31;53015;50.046;8.238;2023-08-21T15:17:47;33.02;53.98
66213;SHT31;53015;50.046;8.238;2023-08-21T15:20:13;32.73;54.40
66213;SHT31;53015;50.046;8.238;2023-08-21T15:22:38;32.61;52.96
66213;SHT31;53015;50.046;8.238;2023-08-21T15:25:05;32.81;52.54
66213;SHT31;53015;50.046;8.238;2023-08-21T15:27:31;32.82;51.71